Time;durP1;ratioP1;P1;durP2;ratioP2;P2;SDS_P1;SDS_P2;PMS_P1;PMS_P2;Temp;Humidity;BMP_temperature;BMP_pressure;BME280_temperature;BME280_humidity;BME280_pressure;Samples;Min_cycle;Max_cycle;Signal;HPM_P1;HPM_P2
2021/03/20 00:04:18;;;;;;;2.03;1.80;;;0.10;99.90;;;0.91;100.00;99032.63;5096954;28;20430;-84
2021/03/20 00:10:45;;;;;;;2.93;2.20;;;-0.10;99.90;;;0.69;100.00;99040.13;5096251;28;20472;-85
2021/03/20 00:17:21;;;;;;;2.10;1.90;;;-0.10;99.90;;;0.72;100.00;99044.25;5096283;28;20407;-84
2021/03/20 00:23:55;;;;;;;3.40;2.20;;;-0.10;99.90;;;0.76;100.00;99043.13;5096286;28;20459;-84
2021/03/20 00:30:29;;;;;;;3.80;2.17;;;-0.20;99.90;;;0.60;100.00;99045.03;5095902;28;20903;-84
2021/03/20 00:32:57;;;;;;;2.23;1.60;;;-0.30;99.90;;;0.67;100.00;99039.38;5095582;28;20467;-84
2021/03/20 00:39:50;;;;;;;3.10;2.20;;;-0.20;99.90;;;0.59;100.00;99040.81;5095691;28;20473;-85
2021/03/20 00:46:23;;;;;;;2.50;1.80;;;-0.30;99.90;;;0.56;100.00;99038.44;5095721;28;20515;-84
2021/03/20 00:52:59;;;;;;;4.03;2.53;;;-0.40;99.90;;;0.52;100.00;99039.56;5095995;28;20419;-84
2021/03/20 00:59:26;;;;;;;3.00;2.00;;;-0.30;99.90;;;0.60;100.00;99048.44;5097110;28;20472;-85
2021/03/20 01:05:53;;;;;;;3.13;2.20;;;-0.30;99.90;;;0.57;100.00;99050.38;5095550;28;20450;-84
2021/03/20 01:12:28;;;;;;;3.93;2.10;;;-0.30;99.90;;;0.73;100.00;99051.03;5094143;28;20423;-85
2021/03/20 01:19:02;;;;;;;4.30;2.07;;;-0.10;99.90;;;0.70;100.00;99038.34;5095198;28;20462;-85
2021/03/20 01:25:36;;;;;;;2.30;1.90;;;-0.10;99.90;;;0.52;100.00;99036.06;5095499;28;20423;-85
2021/03/20 01:32:10;;;;;;;2.80;1.90;;;-0.30;99.90;;;0.51;100.00;99043.91;5094709;28;20462;-84
2021/03/20 01:38:51;;;;;;;2.30;2.00;;;-0.50;99.90;;;0.23;100.00;99055.13;5094913;28;20517;-85
2021/03/20 01:45:28;;;;;;;2.57;1.80;;;-0.50;99.90;;;0.52;100.00;99056.63;5094683;28;20418;-84
2021/03/20 01:52:18;;;;;;;5.30;1.90;;;-0.30;99.90;;;0.56;100.00;99046.97;5094664;28;20986;-85
2021/03/20 01:58:53;;;;;;;2.00;1.80;;;-0.20;99.90;;;0.68;100.00;99051.34;5094330;28;20541;-85
2021/03/20 02:05:30;;;;;;;2.77;2.07;;;-0.20;99.90;;;0.41;100.00;99051.38;5094181;28;20605;-85
2021/03/20 02:12:21;;;;;;;3.53;1.77;;;-0.20;99.90;;;0.71;100.00;99045.16;5094190;28;20473;-84
2021/03/20 02:19:02;;;;;;;2.50;1.73;;;0.10;99.90;;;0.82;100.00;99037.56;5094087;28;20534;-85
2021/03/20 02:26:09;;;;;;;3.07;2.17;;;0.00;99.90;;;0.85;100.00;99042.50;5093633;28;20449;-84
2021/03/20 02:33:10;;;;;;;2.33;1.70;;;-0.10;99.90;;;0.82;100.00;99033.25;5093583;28;21051;-85
2021/03/20 02:44:24;;;;;;;4.30;2.27;;;0.00;99.90;;;0.81;100.00;99023.03;5093399;28;20451;-85
2021/03/20 02:51:07;;;;;;;2.53;2.17;;;0.00;99.90;;;0.84;100.00;99025.41;5093706;28;20495;-85
2021/03/20 02:57:53;;;;;;;3.07;2.03;;;0.00;99.90;;;0.82;100.00;99016.97;5093315;28;21013;-85
2021/03/20 03:04:25;;;;;;;1.87;1.73;;;0.00;99.90;;;0.82;100.00;99001.53;5093095;28;20472;-85
2021/03/20 03:11:15;;;;;;;4.60;2.40;;;-0.10;99.90;;;0.78;100.00;99010.38;5093557;28;20419;-85
2021/03/20 03:18:13;;;;;;;2.43;1.70;;;-0.10;99.90;;;0.67;100.00;99023.94;5092857;28;20795;-85
2021/03/20 03:24:44;;;;;;;3.07;2.23;;;-0.30;99.90;;;0.67;100.00;99028.25;5092941;28;20414;-85
2021/03/20 03:31:23;;;;;;;2.83;2.30;;;-0.10;99.90;;;0.57;100.00;99020.34;5093488;28;20446;-85
2021/03/20 03:38:21;;;;;;;2.00;1.80;;;-0.10;99.90;;;0.74;100.00;99047.53;5092665;28;20802;-84
2021/03/20 03:44:56;;;;;;;2.20;1.90;;;-0.10;99.90;;;0.52;100.00;99050.69;5092628;28;20435;-84
2021/03/20 03:51:27;;;;;;;2.13;1.63;;;-0.30;99.90;;;0.60;100.00;99058.72;5092621;28;20473;-85
2021/03/20 03:58:48;;;;;;;3.03;1.93;;;-0.40;99.90;;;0.55;100.00;99071.06;5092623;28;20427;-86
2021/03/20 04:05:31;;;;;;;2.17;1.97;;;-0.30;99.90;;;0.43;100.00;99062.38;5092402;28;20437;-85
2021/03/20 04:12:09;;;;;;;2.63;2.37;;;-0.60;99.90;;;0.31;100.00;99052.88;5092604;28;20442;-85
2021/03/20 04:19:10;;;;;;;3.60;2.60;;;-0.60;99.90;;;0.17;100.00;99057.28;5092634;28;20410;-84
2021/03/20 04:25:56;;;;;;;3.60;2.13;;;-0.70;99.90;;;0.26;100.00;99065.22;5092539;28;20439;-85
2021/03/20 04:32:43;;;;;;;3.90;2.30;;;-0.60;99.90;;;0.17;100.00;99078.66;5092126;28;20995;-85
2021/03/20 04:39:42;;;;;;;3.20;2.33;;;-0.80;99.90;;;0.02;100.00;99071.06;5092195;28;21017;-85
2021/03/20 04:46:26;;;;;;;2.80;2.20;;;-0.80;99.90;;;0.13;100.00;99048.94;5092761;28;20911;-85
2021/03/20 04:53:02;;;;;;;4.20;2.20;;;-0.70;99.90;;;0.09;100.00;99067.19;5095763;28;20423;-86
2021/03/20 04:59:56;;;;;;;3.93;2.40;;;-0.80;99.90;;;0.03;100.00;99068.41;5095463;28;20410;-86
2021/03/20 05:06:32;;;;;;;3.97;2.40;;;-0.90;99.90;;;-0.03;100.00;99068.78;5095575;28;20490;-86
2021/03/20 05:13:19;;;;;;;2.30;2.10;;;-1.00;99.90;;;-0.11;100.00;99071.03;5095464;28;20489;-86
2021/03/20 05:20:05;;;;;;;9.93;2.23;;;-0.80;99.90;;;-0.04;100.00;99064.59;5095216;28;20443;-86
2021/03/20 05:26:39;;;;;;;2.80;2.37;;;-0.90;99.90;;;0.01;100.00;99072.81;5096505;28;20477;-85
2021/03/20 05:37:27;;;;;;;3.47;2.47;;;-0.80;99.90;;;0.10;100.00;99079.13;5095943;28;20486;-85
2021/03/20 05:44:19;;;;;;;5.73;2.10;;;-0.70;99.90;;;0.16;100.00;99092.44;5095185;28;20973;-87
2021/03/20 05:51:45;;;;;;;2.80;2.17;;;-0.50;99.90;;;0.33;100.00;99089.63;5095187;28;20439;-85
2021/03/20 05:58:42;;;;;;;7.33;2.70;;;-0.40;99.90;;;0.44;100.00;99100.06;5032031;28;20458;-85
2021/03/20 06:05:35;;;;;;;2.33;2.10;;;-0.20;99.90;;;0.50;100.00;99102.25;5032481;28;20465;-85
2021/03/20 06:12:34;;;;;;;2.43;2.20;;;-0.30;99.90;;;0.54;100.00;99122.63;5032724;28;20422;-85
2021/03/20 06:20:06;;;;;;;2.30;2.10;;;-0.40;99.90;;;0.52;100.00;99106.47;5032224;28;20791;-85
2021/03/20 06:26:44;;;;;;;4.73;2.50;;;-0.10;99.90;;;0.51;100.00;99110.78;5094423;28;20541;-85
2021/03/20 06:37:28;;;;;;;3.20;2.70;;;-0.30;99.90;;;0.61;100.00;99122.13;5094413;28;20917;-85
2021/03/20 06:44:00;;;;;;;2.50;2.30;;;-0.20;99.90;;;0.59;100.00;99125.75;5094337;28;20511;-85
2021/03/20 06:50:41;;;;;;;2.90;2.43;;;-0.30;99.90;;;0.57;100.00;99125.00;5093890;28;20747;-85
2021/03/20 06:57:16;;;;;;;2.67;2.27;;;0.00;99.90;;;0.77;100.00;99143.38;5093877;28;20446;-84
2021/03/20 07:04:20;;;;;;;4.20;3.23;;;0.00;99.90;;;0.82;100.00;99145.66;5093997;28;20492;-85
2021/03/20 07:10:57;;;;;;;2.70;2.50;;;0.00;99.90;;;0.88;100.00;99164.13;5093544;28;20461;-85
2021/03/20 07:17:37;;;;;;;4.87;3.57;;;0.20;99.90;;;1.06;100.00;99177.56;5093558;28;20781;-85
2021/03/20 07:24:18;;;;;;;6.40;2.70;;;0.30;99.90;;;1.12;100.00;99169.41;5093442;28;20499;-85
2021/03/20 07:30:52;;;;;;;5.27;3.03;;;0.30;99.90;;;1.08;100.00;99157.66;5093271;28;20418;-85
2021/03/20 07:37:35;;;;;;;3.90;3.10;;;0.50;99.90;;;1.38;100.00;99155.66;5093380;28;20453;-84
2021/03/20 07:44:10;;;;;;;8.47;4.50;;;0.70;99.90;;;1.58;100.00;99159.47;5093250;28;20840;-85
2021/03/20 07:50:48;;;;;;;7.40;3.70;;;0.90;99.90;;;1.80;100.00;99161.44;5093182;28;20938;-85
2021/03/20 07:57:18;;;;;;;4.63;3.67;;;1.20;99.90;;;1.96;100.00;99162.84;5092993;28;20415;-85
2021/03/20 08:03:55;;;;;;;4.20;3.30;;;1.40;99.90;;;2.10;100.00;99174.78;5093152;28;20999;-85
2021/03/20 08:10:32;;;;;;;4.57;3.47;;;1.60;99.90;;;2.16;100.00;99176.94;5092951;28;20465;-85
2021/03/20 08:17:12;;;;;;;3.30;2.87;;;1.70;99.90;;;2.18;100.00;99190.56;5093481;28;20455;-85
2021/03/20 08:24:16;;;;;;;3.80;3.07;;;1.70;99.90;;;2.24;100.00;99200.47;5096808;28;20439;-85
2021/03/20 08:31:06;;;;;;;9.93;2.43;;;1.80;99.90;;;2.31;100.00;99193.13;5096725;28;20503;-85
2021/03/20 08:38:32;;;;;;;3.90;2.90;;;1.90;99.90;;;2.36;100.00;99204.75;5096609;28;20418;-85
2021/03/20 08:45:18;;;;;;;4.10;3.10;;;1.90;99.90;;;2.45;100.00;99221.38;5096558;28;20415;-85
2021/03/20 08:52:04;;;;;;;4.93;2.60;;;2.00;99.90;;;2.54;100.00;99203.47;5096622;28;20419;-85
2021/03/20 08:58:54;;;;;;;3.97;3.00;;;2.20;99.90;;;2.64;100.00;99221.72;5096971;28;20507;-85
2021/03/20 09:05:34;;;;;;;2.93;2.67;;;2.20;99.90;;;2.68;100.00;99207.66;5096039;28;20519;-85
2021/03/20 09:12:18;;;;;;;4.97;3.50;;;2.30;99.90;;;2.72;100.00;99218.59;5095962;28;20466;-85
2021/03/20 09:19:13;;;;;;;3.90;2.90;;;2.30;99.90;;;2.79;100.00;99218.06;5097155;28;20501;-85
2021/03/20 09:25:56;;;;;;;3.00;2.33;;;2.40;99.90;;;3.04;100.00;99217.97;5096459;28;20430;-85
2021/03/20 09:32:51;;;;;;;4.27;3.10;;;2.60;99.90;;;3.18;98.42;99214.38;5095963;28;20807;-84
2021/03/20 09:39:43;;;;;;;2.77;2.53;;;2.70;99.90;;;3.33;96.34;99215.03;5095390;28;20446;-85
2021/03/20 09:46:49;;;;;;;4.67;2.73;;;2.90;99.90;;;3.38;92.99;99192.22;5097192;28;20817;-85
2021/03/20 09:53:36;;;;;;;4.80;3.67;;;2.90;99.90;;;3.58;93.69;99203.66;5095096;28;20466;-85
2021/03/20 10:00:53;;;;;;;3.13;2.63;;;3.10;99.90;;;3.47;88.02;99202.69;5095103;28;20918;-85
2021/03/20 10:07:33;;;;;;;4.43;2.83;;;2.90;99.90;;;3.55;91.15;99205.56;5094979;28;20414;-85
2021/03/20 10:14:26;;;;;;;6.20;2.77;;;3.00;99.90;;;3.57;87.20;99207.22;5095030;28;20850;-85
2021/03/20 10:21:26;;;;;;;2.50;2.30;;;2.90;99.10;;;3.55;86.17;99197.78;5096203;28;20423;-86
2021/03/20 10:28:05;;;;;;;2.50;2.30;;;3.00;98.80;;;3.55;82.35;99190.03;5094399;28;20538;-85
2021/03/20 10:39:25;;;;;;;4.37;2.83;;;2.90;98.70;;;3.71;81.94;99173.38;5094333;28;20427;-85
2021/03/20 10:45:54;;;;;;;2.83;2.53;;;3.10;97.00;;;3.77;78.63;99163.38;5093818;28;20514;-85
2021/03/20 10:52:33;;;;;;;3.00;2.70;;;3.20;96.40;;;3.94;78.25;99155.16;5094093;28;20435;-85
2021/03/20 10:59:34;;;;;;;4.60;2.40;;;3.40;96.80;;;3.95;77.31;99156.81;5093867;28;20832;-85
2021/03/20 11:06:13;;;;;;;3.70;2.47;;;3.40;95.50;;;4.04;69.90;99152.69;5093724;28;20548;-86
2021/03/20 11:12:50;;;;;;;3.87;2.47;;;3.40;95.10;;;4.12;71.38;99152.91;5093655;28;20477;-85
2021/03/20 11:19:32;;;;;;;3.90;2.20;;;3.50;94.80;;;4.22;71.86;99145.25;5093570;28;20917;-85
2021/03/20 11:26:13;;;;;;;2.33;2.13;;;3.70;93.90;;;4.22;67.00;99148.66;5093521;28;20915;-85
2021/03/20 11:32:44;;;;;;;2.40;2.13;;;3.60;93.60;;;4.40;67.46;99139.47;5093149;28;20429;-85
2021/03/20 11:39:38;;;;;;;4.93;2.20;;;3.90;94.00;;;4.54;67.23;99131.44;5093561;28;20508;-85
2021/03/20 11:46:17;;;;;;;4.53;2.33;;;4.10;94.30;;;4.61;67.58;99134.34;5093326;28;20583;-86
2021/03/20 11:52:51;;;;;;;3.90;2.47;;;4.00;92.90;;;4.63;65.42;99126.44;5093266;28;20501;-85
2021/03/20 11:59:38;;;;;;;2.60;2.40;;;4.10;93.30;;;4.69;64.85;99120.75;5097327;28;20422;-86
2021/03/20 12:06:31;;;;;;;3.47;2.40;;;4.20;93.70;;;4.81;65.56;99119.78;5097153;28;20422;-85
2021/03/20 12:12:59;;;;;;;3.53;2.70;;;4.30;92.50;;;4.78;64.41;99107.91;5097068;28;20507;-85
2021/03/20 12:19:49;;;;;;;3.50;2.50;;;4.10;94.00;;;4.80;67.50;99106.00;5098028;28;20537;-86
2021/03/20 12:26:35;;;;;;;5.20;2.77;;;4.30;94.00;;;4.88;65.99;99095.03;5099026;28;20428;-85
2021/03/20 12:33:17;;;;;;;4.33;2.60;;;4.30;92.50;;;4.91;61.68;99087.00;5096531;28;21017;-85
2021/03/20 12:39:49;;;;;;;3.60;2.70;;;4.30;92.10;;;4.90;63.22;99082.75;5096703;28;20418;-85
2021/03/20 12:46:24;;;;;;;4.07;2.77;;;4.40;92.80;;;5.08;64.13;99087.25;5096435;28;20885;-85
2021/03/20 12:53:00;;;;;;;4.90;2.33;;;4.60;92.60;;;5.20;62.95;99082.00;5096422;28;20484;-85
2021/03/20 12:59:34;;;;;;;5.27;2.90;;;4.70;92.30;;;5.27;60.30;99083.97;5096220;28;20791;-85
2021/03/20 13:06:04;;;;;;;3.70;2.63;;;4.70;91.60;;;5.37;59.44;99077.06;5095995;28;20461;-86
2021/03/20 13:12:31;;;;;;;3.23;2.73;;;4.80;90.80;;;5.40;58.37;99076.81;5095878;28;20531;-85
2021/03/20 13:19:05;;;;;;;3.03;2.13;;;4.70;88.90;;;5.46;57.71;99071.09;5095851;28;20427;-86
2021/03/20 13:25:42;;;;;;;2.90;2.07;;;5.00;90.80;;;5.61;58.46;99062.97;5095773;28;20949;-85
2021/03/20 13:32:11;;;;;;;5.17;2.17;;;5.10;90.80;;;5.79;56.46;99051.00;5095969;28;20450;-85
2021/03/20 13:38:52;;;;;;;3.03;2.20;;;5.30;89.10;;;6.03;54.89;99052.34;5095450;28;20470;-85
2021/03/20 13:45:31;;;;;;;3.63;2.33;;;5.50;87.90;;;6.21;53.72;99042.13;5095296;28;20772;-85
2021/03/20 13:52:06;;;;;;;2.10;1.73;;;5.60;87.10;;;6.31;52.88;99027.38;5095140;28;20458;-85
2021/03/20 13:58:35;;;;;;;2.50;2.10;;;5.90;88.80;;;6.60;52.99;99027.34;5095101;28;20511;-85
2021/03/20 14:05:12;;;;;;;2.47;2.27;;;6.20;85.00;;;6.83;51.04;99022.69;5094871;28;20447;-85
2021/03/20 14:11:49;;;;;;;5.57;2.67;;;6.70;85.10;;;7.23;50.23;99025.88;5094863;28;20505;-85
2021/03/20 14:18:27;;;;;;;2.50;2.20;;;7.10;85.50;;;7.88;51.56;99013.69;5094953;28;21180;-85
2021/03/20 14:24:56;;;;;;;6.50;2.40;;;7.50;84.80;;;8.12;49.08;99013.97;5094611;28;20919;-85
2021/03/20 14:31:30;;;;;;;5.60;2.97;;;7.70;83.70;;;8.39;48.41;99007.88;5094779;28;20418;-85
2021/03/20 14:38:30;;;;;;;3.40;2.60;;;7.90;82.30;;;8.46;48.16;99001.94;5094480;28;20459;-86
2021/03/20 14:45:08;;;;;;;3.20;2.17;;;7.80;81.10;;;8.40;45.01;98999.91;5094307;28;20548;-86
2021/03/20 14:51:43;;;;;;;2.40;1.80;;;7.80;79.30;;;8.18;46.19;99002.94;5094121;28;20973;-86
2021/03/20 14:58:17;;;;;;;4.10;2.83;;;7.30;78.80;;;7.78;47.49;98985.09;5094129;28;20947;-86
2021/03/20 15:04:53;;;;;;;3.87;2.60;;;7.30;84.00;;;8.18;49.01;98982.09;5093943;28;20994;-85
2021/03/20 15:18:55;;;;;;;3.23;1.90;;;7.50;76.80;;;8.29;44.45;98979.31;5094104;28;20495;-86
2021/03/20 15:25:30;;;;;;;4.93;2.33;;;7.60;72.60;;;8.26;42.83;98968.34;5093733;28;20423;-86
2021/03/20 15:32:07;;;;;;;2.33;2.13;;;7.70;76.00;;;8.21;44.73;98957.53;5092252;28;20435;-85
2021/03/20 15:38:52;;;;;;;4.13;2.60;;;7.50;78.50;;;8.17;44.61;98959.63;5093242;28;20506;-89
2021/03/20 15:45:29;;;;;;;2.40;2.00;;;7.60;78.50;;;8.37;44.63;98949.88;5092986;28;20470;-87
2021/03/20 15:52:04;;;;;;;7.27;3.07;;;7.90;76.40;;;8.58;44.36;98932.94;5093169;28;20473;-87
2021/03/20 15:58:41;;;;;;;3.63;2.30;;;8.10;75.30;;;8.49;44.71;98943.47;5092851;28;20924;-87
2021/03/20 16:05:18;;;;;;;5.80;3.60;;;7.90;75.70;;;8.51;43.63;98952.75;5092729;28;20446;-87
2021/03/20 16:11:52;;;;;;;4.53;2.50;;;7.90;75.20;;;8.63;42.91;98955.13;5092776;28;20533;-86
2021/03/20 16:18:22;;;;;;;4.97;2.73;;;8.00;73.50;;;8.49;41.67;98952.09;5092628;28;20506;-87
2021/03/20 16:25:08;;;;;;;2.97;2.43;;;7.80;73.80;;;8.34;40.59;98942.34;5092778;28;20422;-87
2021/03/20 16:31:45;;;;;;;4.97;2.10;;;7.70;71.40;;;8.18;39.93;98950.84;5092539;28;20414;-88
2021/03/20 16:38:42;;;;;;;5.17;2.60;;;7.40;71.10;;;8.01;40.66;98943.84;5092472;28;20564;-87
2021/03/20 16:45:12;;;;;;;5.43;2.50;;;7.30;70.80;;;7.87;40.33;98952.16;5096112;28;20419;-86
2021/03/20 16:51:47;;;;;;;3.63;2.57;;;7.20;71.10;;;7.73;42.12;98950.88;5096066;28;20465;-87
2021/03/20 16:58:20;;;;;;;7.90;2.97;;;6.90;73.40;;;7.63;43.41;98946.69;5096116;28;20917;-86
2021/03/20 17:04:55;;;;;;;5.90;2.80;;;6.80;76.60;;;7.45;45.49;98957.06;5095766;28;20415;-86
2021/03/20 17:11:26;;;;;;;2.93;2.23;;;6.60;80.30;;;7.18;47.85;98951.84;5095623;28;20521;-86
2021/03/20 17:18:12;;;;;;;5.30;2.67;;;6.30;80.10;;;6.87;50.70;98951.28;5095468;28;20410;-86
2021/03/20 17:24:47;;;;;;;4.00;2.33;;;5.70;86.40;;;6.50;52.61;98956.41;5095505;28;20454;-86
2021/03/20 17:31:21;;;;;;;10.87;3.30;;;5.60;88.60;;;6.38;55.56;98960.94;5095136;28;20488;-86
2021/03/20 17:42:55;;;;;;;6.60;3.23;;;5.30;90.50;;;6.18;57.68;98959.28;5075259;28;20475;-86
2021/03/20 17:49:29;;;;;;;4.00;2.90;;;5.30;90.90;;;6.07;59.23;98965.44;5074900;28;20541;-86
2021/03/20 17:56:13;;;;;;;3.97;2.67;;;5.00;90.80;;;5.89;61.37;98961.06;5073869;28;20430;-86
2021/03/20 18:02:42;;;;;;;7.70;4.00;;;5.00;91.90;;;5.88;60.50;98954.22;5074072;28;20508;-86
2021/03/20 18:09:24;;;;;;;4.57;3.00;;;5.00;92.30;;;5.82;63.14;98946.94;5074547;28;20451;-85
2021/03/20 18:15:59;;;;;;;3.03;2.53;;;5.00;91.90;;;5.76;66.59;98947.50;5074336;28;20424;-85
2021/03/20 18:22:34;;;;;;;2.73;2.10;;;4.90;92.40;;;5.54;65.68;98949.34;5073911;28;20912;-86
2021/03/20 18:29:02;;;;;;;3.43;2.67;;;4.70;91.00;;;5.38;67.29;98956.00;5073850;28;20459;-85
2021/03/20 18:35:30;;;;;;;2.73;2.30;;;4.60;91.00;;;4.94;67.82;98962.34;5073767;28;20458;-85
2021/03/20 18:42:23;;;;;;;3.50;2.70;;;4.20;92.90;;;4.76;68.18;98966.47;5093834;28;20529;-85
2021/03/20 18:49:01;;;;;;;3.93;2.57;;;3.90;93.20;;;4.57;71.09;98965.44;5093788;28;20455;-90
2021/03/20 18:55:31;;;;;;;4.30;2.90;;;3.50;93.20;;;4.38;73.13;98972.22;5093502;28;20458;-89
2021/03/20 19:02:07;;;;;;;4.30;2.70;;;3.60;93.90;;;4.37;72.90;98965.44;5092969;28;20453;-89
2021/03/20 19:08:42;;;;;;;2.47;2.27;;;3.70;92.80;;;4.48;71.71;98973.09;5093032;28;20782;-88
2021/03/20 19:15:19;;;;;;;4.83;2.80;;;3.60;93.40;;;4.55;71.30;98966.47;5092894;28;20447;-88
2021/03/20 19:21:54;;;;;;;4.57;3.33;;;3.80;93.40;;;4.65;71.53;98964.78;5092721;28;20422;-88
2021/03/20 19:28:32;;;;;;;5.60;3.47;;;3.80;93.30;;;4.46;73.52;98965.50;5092977;28;20769;-88
2021/03/20 19:35:09;;;;;;;5.10;3.30;;;3.80;94.30;;;4.66;73.30;98961.25;5092175;28;20923;-87
2021/03/20 19:41:50;;;;;;;4.43;3.17;;;3.90;94.20;;;4.76;76.39;98956.13;5092610;28;20494;-88
2021/03/20 19:48:23;;;;;;;10.03;4.30;;;4.00;94.00;;;4.86;74.30;98959.59;5092754;28;20472;-87
2021/03/20 19:54:57;;;;;;;4.87;3.40;;;4.00;94.70;;;4.58;75.67;98943.75;5092852;28;20490;-87
2021/03/20 20:01:32;;;;;;;7.07;3.43;;;3.70;94.00;;;4.67;74.55;98951.72;5092173;28;20426;-88
2021/03/20 20:08:10;;;;;;;5.33;3.10;;;3.80;94.20;;;4.47;76.76;98954.19;5092078;28;20423;-89
2021/03/20 20:14:38;;;;;;;4.37;2.90;;;3.60;95.60;;;4.39;79.62;98948.81;5091583;28;20970;-88
2021/03/20 20:21:19;;;;;;;7.13;3.77;;;3.70;94.90;;;4.50;78.66;98941.00;5095876;28;20783;-86
2021/03/20 20:28:17;;;;;;;5.43;3.40;;;3.60;94.80;;;4.54;79.03;98954.50;5095543;28;20801;-88
2021/03/20 20:34:51;;;;;;;5.43;4.10;;;3.90;95.10;;;4.73;78.74;98952.00;5095222;28;20457;-87
2021/03/20 20:41:28;;;;;;;4.87;3.33;;;4.10;95.00;;;4.80;80.01;98950.56;5094911;28;20414;-87
2021/03/20 20:48:04;;;;;;;8.83;3.83;;;4.00;96.00;;;4.69;80.59;98944.63;5094833;28;20791;-88
2021/03/20 20:54:38;;;;;;;6.10;3.20;;;3.90;95.70;;;4.73;80.46;98954.59;5094718;28;20482;-88
2021/03/20 21:01:17;;;;;;;4.40;3.20;;;4.00;95.60;;;4.76;80.80;98956.13;5095785;28;20482;-87
2021/03/20 21:07:45;;;;;;;6.03;3.87;;;4.00;96.60;;;4.79;81.73;98954.09;5094813;28;20431;-88
2021/03/20 21:14:18;;;;;;;9.90;5.00;;;4.10;96.10;;;4.84;81.62;98951.13;5094613;28;20407;-87
2021/03/20 21:20:53;;;;;;;6.23;3.87;;;4.00;96.30;;;4.68;83.00;98953.34;5094520;28;20419;-88
2021/03/20 21:27:27;;;;;;;12.80;3.87;;;3.90;96.60;;;4.73;83.69;98951.19;5094709;28;20423;-86
2021/03/20 21:33:55;;;;;;;10.50;3.87;;;4.00;96.40;;;4.71;83.67;98932.38;5094402;28;20419;-88
2021/03/20 21:45:27;;;;;;;9.40;3.77;;;4.00;96.80;;;4.73;82.82;98915.75;5094211;28;20450;-88
2021/03/20 21:52:01;;;;;;;3.70;2.83;;;4.00;95.90;;;4.76;81.83;98910.31;5093815;28;20755;-87
2021/03/20 21:58:38;;;;;;;9.23;2.90;;;3.90;96.50;;;4.67;82.18;98912.84;5093902;28;20422;-88
2021/03/20 22:05:08;;;;;;;5.00;3.47;;;3.90;96.00;;;4.62;83.17;98913.22;5093576;28;20470;-87
2021/03/20 22:11:37;;;;;;;5.67;3.33;;;3.90;96.20;;;4.62;84.17;98913.22;5093480;28;20463;-87
2021/03/20 22:18:10;;;;;;;6.90;2.90;;;3.80;96.60;;;4.60;83.93;98907.38;5093789;28;20427;-88
2021/03/20 22:24:46;;;;;;;4.63;3.17;;;3.80;96.40;;;4.45;86.30;98912.03;5093454;28;20807;-88
2021/03/20 22:31:19;;;;;;;5.53;3.20;;;3.70;97.20;;;4.46;86.43;98905.09;5093283;28;20422;-89
2021/03/20 22:37:53;;;;;;;4.93;3.43;;;3.50;97.60;;;4.32;87.79;98900.25;5093162;28;20906;-86
2021/03/20 22:44:47;;;;;;;5.43;3.47;;;3.40;97.50;;;4.32;88.07;98892.47;5092877;28;20415;-87
2021/03/20 22:51:22;;;;;;;5.07;3.47;;;3.50;97.70;;;4.41;87.27;98889.13;5092462;28;20419;-88
2021/03/20 22:57:50;;;;;;;4.73;3.57;;;3.60;97.50;;;4.49;87.46;98892.72;5092430;28;20455;-87
2021/03/20 23:04:18;;;;;;;5.10;3.20;;;3.70;97.20;;;4.40;87.72;98888.31;5092294;28;20826;-87
2021/03/20 23:10:52;;;;;;;4.53;3.00;;;3.40;97.30;;;4.32;87.17;98890.72;5092258;28;20498;-89
2021/03/20 23:17:26;;;;;;;6.30;3.17;;;3.60;97.30;;;4.40;86.71;98885.75;5092120;28;20447;-87
2021/03/20 23:24:01;;;;;;;3.67;2.80;;;3.60;97.10;;;4.36;85.89;98893.88;5093230;28;20419;-87
2021/03/20 23:30:33;;;;;;;5.73;2.80;;;3.50;96.70;;;4.28;87.03;98880.72;5092979;28;20874;-87
2021/03/20 23:37:07;;;;;;;4.50;3.40;;;3.40;98.10;;;4.39;86.71;98881.50;5093132;28;20793;-88
2021/03/20 23:48:40;;;;;;;6.87;3.13;;;3.60;97.50;;;4.18;87.24;98864.31;5092797;28;20450;-87
2021/03/20 23:55:15;;;;;;;6.13;3.10;;;3.40;97.60;;;4.22;87.56;98860.53;5098660;28;20418;-87
